Time;durP1;ratioP1;P1;durP2;ratioP2;P2;SDS_P1;SDS_P2;PMS_P1;PMS_P2;Temp;Humidity;BMP_temperature;BMP_pressure;BME280_temperature;BME280_humidity;BME280_pressure;Samples;Min_cycle;Max_cycle;Signal;HPM_P1;HPM_P2
2022/10/25 00:01:39;;;;;;;58.20;35.83;;;;;;;9.32;100.00;99470.16;1691671;84;21019;-73
2022/10/25 00:04:05;;;;;;;55.45;33.83;;;;;;;9.32;100.00;99471.53;1706030;82;20903;-73
2022/10/25 00:06:32;;;;;;;58.80;36.42;;;;;;;9.33;100.00;99470.41;1689705;84;21505;-72
2022/10/25 00:08:58;;;;;;;61.88;37.45;;;;;;;9.33;100.00;99464.12;1709473;83;21147;-73
2022/10/25 00:11:27;;;;;;;58.25;36.00;;;;;;;9.31;100.00;99458.95;1722881;82;20997;-73
2022/10/25 00:13:57;;;;;;;56.60;36.30;;;;;;;9.30;100.00;99453.78;1688781;84;21046;-73
2022/10/25 00:16:28;;;;;;;61.83;36.88;;;;;;;9.28;100.00;99462.31;1702504;82;20926;-73
2022/10/25 00:18:56;;;;;;;63.68;38.45;;;;;;;9.30;100.00;99458.70;1710837;83;20955;-73
2022/10/25 00:21:23;;;;;;;61.02;37.08;;;;;;;9.31;100.00;99456.77;1663152;86;21573;-73
2022/10/25 00:23:50;;;;;;;62.75;37.93;;;;;;;9.34;100.00;99453.41;1692549;83;20967;-73
2022/10/25 00:26:17;;;;;;;53.63;36.80;;;;;;;9.36;100.00;99454.72;1699720;83;21472;-73
2022/10/25 00:28:43;;;;;;;60.33;37.15;;;;;;;9.39;100.00;99451.92;1685554;84;20998;-75
2022/10/25 00:31:15;;;;;;;57.93;37.20;;;;;;;9.41;100.00;99457.91;1680876;84;21069;-76
2022/10/25 00:33:43;;;;;;;65.08;38.48;;;;;;;9.42;100.00;99452.12;1714910;82;21305;-74
2022/10/25 00:36:16;;;;;;;59.93;37.48;;;;;;;9.46;100.00;99448.20;1688643;84;20892;-74
2022/10/25 00:38:45;;;;;;;63.02;37.03;;;;;;;9.48;100.00;99445.95;1702099;82;21071;-74
2022/10/25 00:41:17;;;;;;;58.90;37.90;;;;;;;9.49;100.00;99450.31;1689695;84;21463;-74
2022/10/25 00:43:48;;;;;;;;;;;;;;;9.50;100.00;99456.86;1690843;84;22381;-75
2022/10/25 00:46:23;;;;;;;57.05;34.43;;;;;;;9.53;100.00;99454.05;1688752;83;21843;-75
2022/10/25 00:49:07;;;;;;;53.13;33.70;;;;;;;9.50;100.00;99443.16;1707760;83;20979;-74
2022/10/25 00:51:59;;;;;;;55.50;34.67;;;;;;;9.49;100.00;99439.36;1712062;83;21016;-74
2022/10/25 00:54:33;;;;;;;56.70;33.92;;;;;;;9.49;100.00;99433.31;1694102;83;21077;-73
2022/10/25 00:57:05;;;;;;;58.45;35.48;;;;;;;9.46;100.00;99429.02;1686322;84;20939;-74
2022/10/25 00:59:31;;;;;;;55.20;32.90;;;;;;;9.43;100.00;99429.08;1673354;84;21125;-74
2022/10/25 01:01:58;;;;;;;50.90;32.95;;;;;;;9.39;100.00;99417.13;1636816;85;21523;-75
2022/10/25 01:04:27;;;;;;;53.35;33.83;;;;;;;9.36;100.00;99421.84;1688641;83;21011;-76
2022/10/25 01:06:53;;;;;;;45.75;31.00;;;;;;;9.33;100.00;99420.29;1688279;83;21076;-74
2022/10/25 01:09:25;;;;;;;56.88;33.10;;;;;;;9.32;100.00;99414.00;1695086;84;21168;-75
2022/10/25 01:11:51;;;;;;;48.80;31.67;;;;;;;9.27;100.00;99401.80;1707362;83;22031;-74
2022/10/25 01:14:19;;;;;;;51.88;32.98;;;;;;;9.22;100.00;99401.95;1709191;82;20990;-74
2022/10/25 01:16:58;;;;;;;51.58;32.05;;;;;;;9.16;100.00;99401.25;1714959;83;20998;-74
2022/10/25 01:19:48;;;;;;;49.23;31.27;;;;;;;9.10;100.00;99399.75;1686027;83;21049;-74
2022/10/25 01:22:51;;;;;;;52.53;33.28;;;;;;;9.03;100.00;99396.63;1721327;82;20962;-75
2022/10/25 01:25:55;;;;;;;44.80;29.90;;;;;;;9.01;100.00;99397.50;1704108;83;21282;-75
2022/10/25 01:29:01;;;;;;;48.38;31.33;;;;;;;8.99;100.00;99398.92;1701976;83;20998;-74
2022/10/25 01:31:50;;;;;;;46.80;30.48;;;;;;;8.92;100.00;99393.88;1729752;81;20954;-76
2022/10/25 01:34:37;;;;;;;45.52;29.85;;;;;;;8.88;100.00;99389.57;1701596;83;20975;-73
2022/10/25 01:37:12;;;;;;;48.95;30.37;;;;;;;8.84;100.00;99388.56;1682345;83;21038;-74
2022/10/25 01:39:47;;;;;;;49.85;31.93;;;;;;;8.78;100.00;99389.80;1639844;87;22212;-74
2022/10/25 01:42:23;;;;;;;48.83;29.10;;;;;;;8.73;100.00;99395.94;1618824;87;21707;-74
2022/10/25 01:45:11;;;;;;;42.67;28.73;;;;;;;8.68;100.00;99390.58;1691973;84;20924;-74
2022/10/25 01:47:53;;;;;;;42.15;28.87;;;;;;;8.58;100.00;99380.12;1706251;82;21656;-74
2022/10/25 01:50:29;;;;;;;39.73;27.45;;;;;;;8.49;100.00;99383.89;1698081;83;21561;-73
2022/10/25 01:52:55;;;;;;;48.68;29.98;;;;;;;8.41;100.00;99383.23;1713835;83;21928;-74
2022/10/25 01:55:27;;;;;;;47.13;28.25;;;;;;;8.33;100.00;99387.49;1709287;82;20910;-73
2022/10/25 01:58:31;;;;;;;43.40;26.73;;;;;;;8.28;100.00;99383.46;1715891;82;20947;-74
2022/10/25 02:01:16;;;;;;;40.20;27.48;;;;;;;8.26;100.00;99389.80;1708920;83;21070;-74
2022/10/25 02:04:03;;;;;;;42.25;27.67;;;;;;;8.19;100.00;99393.48;1721838;83;20991;-74
2022/10/25 02:06:44;;;;;;;42.33;26.42;;;;;;;8.15;100.00;99397.39;1715607;83;21866;-74
2022/10/25 02:09:26;;;;;;;44.25;25.90;;;;;;;8.08;100.00;99394.83;1709588;82;20999;-78
2022/10/25 02:11:52;;;;;;;37.35;25.27;;;;;;;8.02;100.00;99390.56;1710790;82;21045;-75
2022/10/25 02:14:26;;;;;;;33.38;24.18;;;;;;;7.98;100.00;99396.39;1704995;82;21565;-76
2022/10/25 02:17:15;;;;;;;44.48;24.12;;;;;;;7.93;100.00;99401.39;1742548;81;21453;-75
2022/10/25 02:19:53;;;;;;;34.43;24.15;;;;;;;7.91;100.00;99397.59;1751041;81;20990;-75
2022/10/25 02:22:22;;;;;;;35.98;23.98;;;;;;;7.93;100.00;99406.86;1748911;81;20965;-74
2022/10/25 02:24:49;;;;;;;30.70;22.48;;;;;;;7.94;100.00;99405.74;1728863;81;21097;-75
2022/10/25 02:27:16;;;;;;;42.70;24.70;;;;;;;7.96;100.00;99408.98;1726873;82;21017;-74
2022/10/25 02:29:43;;;;;;;33.98;24.40;;;;;;;7.97;100.00;99410.61;1742876;81;21345;-80
2022/10/25 02:32:09;;;;;;;39.58;27.45;;;;;;;8.00;100.00;99410.00;1737314;81;21818;-69
2022/10/25 02:34:38;;;;;;;41.13;25.72;;;;;;;8.05;100.00;99414.02;1747081;81;21427;-69
2022/10/25 02:37:05;;;;;;;44.77;27.52;;;;;;;8.13;100.00;99397.44;1736314;81;21099;-78
2022/10/25 02:39:34;;;;;;;41.58;28.20;;;;;;;8.18;100.00;99398.70;1732751;81;21440;-68
2022/10/25 02:42:04;;;;;;;58.28;38.25;;;;;;;8.21;100.00;99396.73;1721284;82;21030;-78
2022/10/25 02:44:37;;;;;;;50.25;34.90;;;;;;;8.24;100.00;99396.94;1709227;82;21150;-77
2022/10/25 02:47:07;;;;;;;45.23;31.20;;;;;;;8.29;100.00;99396.83;1689897;82;21013;-76
2022/10/25 02:49:40;;;;;;;48.42;29.45;;;;;;;8.32;100.00;99395.97;1730887;82;21053;-76
2022/10/25 02:52:08;;;;;;;47.85;33.20;;;;;;;8.35;100.00;99394.84;1717248;82;20951;-77
2022/10/25 02:54:43;;;;;;;41.42;27.32;;;;;;;8.41;100.00;99393.63;1701468;83;21426;-75
2022/10/25 02:57:15;;;;;;;38.90;27.27;;;;;;;8.44;100.00;99394.94;1700266;82;21030;-77
2022/10/25 02:59:47;;;;;;;40.50;27.35;;;;;;;8.47;100.00;99388.30;1712874;82;21663;-75
2022/10/25 03:02:14;;;;;;;40.30;27.27;;;;;;;8.53;100.00;99391.18;1711643;82;21047;-71
2022/10/25 03:04:41;;;;;;;41.77;26.50;;;;;;;8.60;100.00;99397.05;1697860;82;21427;-76
2022/10/25 03:07:09;;;;;;;39.35;24.15;;;;;;;8.59;100.00;99390.52;1700109;83;21015;-74
2022/10/25 03:09:45;;;;;;;41.50;27.67;;;;;;;8.60;100.00;99399.78;1706436;82;21621;-74
2022/10/25 03:12:17;;;;;;;38.95;26.30;;;;;;;8.58;100.00;99387.53;1711601;83;21557;-76
2022/10/25 03:14:45;;;;;;;41.63;26.42;;;;;;;8.59;100.00;99389.15;1712975;82;21011;-77
2022/10/25 03:17:15;;;;;;;40.30;26.65;;;;;;;8.60;100.00;99388.03;1719603;83;21054;-79
2022/10/25 03:19:42;;;;;;;39.73;27.20;;;;;;;8.59;100.00;99382.31;1722346;82;21082;-77
2022/10/25 03:22:11;;;;;;;39.55;25.35;;;;;;;8.58;100.00;99383.42;1704873;83;21155;-77
2022/10/25 03:24:41;;;;;;;38.17;25.45;;;;;;;8.56;100.00;99378.81;1692576;83;21006;-77
2022/10/25 03:27:13;;;;;;;39.65;24.00;;;;;;;8.52;100.00;99374.52;1689128;84;21074;-76
2022/10/25 03:29:45;;;;;;;37.70;26.15;;;;;;;8.49;100.00;99375.13;1689235;84;21506;-76
2022/10/25 03:32:19;;;;;;;35.65;22.55;;;;;;;8.44;100.00;99375.79;1718337;83;20922;-77
2022/10/25 03:34:44;;;;;;;33.48;22.58;;;;;;;8.36;100.00;99378.68;1654826;84;20963;-77
2022/10/25 03:37:14;;;;;;;34.55;24.50;;;;;;;8.29;100.00;99372.78;1686962;84;27659;-77
2022/10/25 03:39:48;;;;;;;34.38;23.27;;;;;;;8.26;100.00;99370.65;1685572;83;21518;-77
2022/10/25 03:42:21;;;;;;;36.55;23.27;;;;;;;8.22;100.00;99368.27;1673049;84;21529;-77
2022/10/25 03:44:49;;;;;;;39.85;21.93;;;;;;;8.14;100.00;99362.14;1686410;84;21068;-77
2022/10/25 03:47:22;;;;;;;32.20;22.25;;;;;;;8.06;100.00;99360.14;1689740;83;21057;-77
2022/10/25 03:49:55;;;;;;;37.55;22.00;;;;;;;7.99;100.00;99360.55;1720890;83;20936;-77
2022/10/25 03:52:23;;;;;;;32.23;21.27;;;;;;;7.92;100.00;99351.38;1707141;83;21475;-76
2022/10/25 03:54:49;;;;;;;33.40;21.33;;;;;;;7.84;100.00;99349.91;1709620;82;20995;-81
2022/10/25 03:57:25;;;;;;;37.90;21.82;;;;;;;7.77;100.00;99349.48;1707077;83;21054;-78
2022/10/25 03:59:58;;;;;;;46.60;21.87;;;;;;;7.69;100.00;99353.73;1679068;84;20868;-77
2022/10/25 04:02:29;;;;;;;40.58;22.80;;;;;;;7.61;100.00;99352.50;1715127;82;21621;-77
2022/10/25 04:05:03;;;;;;;38.05;23.15;;;;;;;7.57;100.00;99355.58;1674446;84;20904;-77
2022/10/25 04:07:32;;;;;;;32.60;22.43;;;;;;;7.51;100.00;99354.05;1687842;84;20983;-78
2022/10/25 04:10:03;;;;;;;40.38;23.12;;;;;;;7.47;100.00;99359.07;1638961;86;21419;-78
2022/10/25 04:12:33;;;;;;;39.70;24.20;;;;;;;7.41;100.00;99359.71;1687945;84;21038;-79
2022/10/25 04:15:12;;;;;;;;;;;;;;;7.36;100.00;99355.70;1678684;83;20995;-77
2022/10/25 04:17:40;;;;;;;44.65;24.25;;;;;;;7.29;100.00;99349.81;1671235;83;20185;-77
2022/10/25 04:20:11;;;;;;;56.65;28.95;;;;;;;7.23;100.00;99348.27;1682541;83;20948;-77
2022/10/25 04:22:44;;;;;;;53.08;27.17;;;;;;;7.19;100.00;99354.07;1701619;83;21070;-77
2022/10/25 04:25:20;;;;;;;53.58;28.90;;;;;;;7.15;100.00;99355.22;1674579;83;21159;-76
2022/10/25 04:27:50;;;;;;;64.12;30.27;;;;;;;7.13;100.00;99356.07;1700845;83;20867;-76
2022/10/25 04:30:21;;;;;;;62.30;29.72;;;;;;;7.08;100.00;99356.16;1686987;84;21005;-76
2022/10/25 04:32:52;;;;;;;66.60;30.08;;;;;;;7.05;100.00;99350.47;1707325;82;21033;-77
2022/10/25 04:35:26;;;;;;;66.00;29.43;;;;;;;7.01;100.00;99346.72;1725136;81;21128;-76
2022/10/25 04:38:00;;;;;;;63.73;30.90;;;;;;;6.98;100.00;99351.41;1699391;84;21165;-76
2022/10/25 04:40:29;;;;;;;66.67;32.83;;;;;;;6.93;100.00;99350.38;1734901;81;20978;-74
2022/10/25 04:43:01;;;;;;;69.15;32.45;;;;;;;6.90;100.00;99348.82;1721399;82;20966;-74
2022/10/25 04:45:36;;;;;;;61.98;32.08;;;;;;;6.86;100.00;99340.97;1729646;82;20959;-75
2022/10/25 04:48:08;;;;;;;61.73;31.52;;;;;;;6.84;100.00;99343.18;1711394;82;20950;-74
2022/10/25 04:50:38;;;;;;;65.00;30.60;;;;;;;6.81;100.00;99343.22;1662852;84;21101;-76
2022/10/25 04:53:11;;;;;;;;;;;;;;;6.81;100.00;99345.14;1620866;88;21007;-75
2022/10/25 04:55:46;;;;;;;;;;;;;;;6.82;100.00;99346.76;1643588;85;20139;-69
2022/10/25 04:58:17;;;;;;;53.15;26.62;;;;;;;6.84;100.00;99348.64;1663794;84;20175;-69
2022/10/25 05:00:47;;;;;;;57.38;29.23;;;;;;;6.83;100.00;99345.66;1674517;85;21006;-75
2022/10/25 05:03:18;;;;;;;52.38;28.52;;;;;;;6.83;100.00;99341.56;1693839;83;21302;-76
2022/10/25 05:05:44;;;;;;;53.48;26.27;;;;;;;6.84;100.00;99335.81;1656034;85;22140;-73
2022/10/25 05:08:14;;;;;;;56.00;27.07;;;;;;;6.85;100.00;99336.62;1662178;84;20911;-75
2022/10/25 05:10:41;;;;;;;49.83;26.45;;;;;;;6.87;100.00;99333.04;1698849;82;21121;-76
2022/10/25 05:13:10;;;;;;;47.10;27.02;;;;;;;6.90;100.00;99335.17;1720856;83;20951;-79
2022/10/25 05:21:49;;;;;;;;;;;;;;;7.04;100.00;99334.65;1669781;83;22166;-76
2022/10/25 05:24:18;;;;;;;42.80;24.35;;;;;;;7.16;100.00;99343.75;1710527;82;20485;-73
2022/10/25 05:26:45;;;;;;;42.85;25.80;;;;;;;7.26;100.00;99333.47;1686800;83;21007;-72
2022/10/25 05:29:11;;;;;;;43.75;25.88;;;;;;;7.39;100.00;99336.54;1688313;83;21184;-77
2022/10/25 05:31:40;;;;;;;42.53;27.87;;;;;;;7.49;100.00;99342.64;1675835;83;20896;-76
2022/10/25 05:34:11;;;;;;;60.85;29.15;;;;;;;7.62;100.00;99334.99;1655458;84;21149;-75
2022/10/25 05:36:43;;;;;;;40.60;25.55;;;;;;;7.76;100.00;99341.84;1647773;86;20925;-75
2022/10/25 05:39:16;;;;;;;38.30;24.70;;;;;;;7.85;100.00;99334.57;1689127;84;20875;-74
2022/10/25 05:41:51;;;;;;;42.48;25.97;;;;;;;7.96;100.00;99332.45;1683696;85;21109;-71
2022/10/25 05:44:23;;;;;;;37.88;24.65;;;;;;;8.08;100.00;99332.75;1621940;86;20964;-72
2022/10/25 05:46:54;;;;;;;35.67;22.77;;;;;;;8.22;100.00;99338.19;1715573;83;21747;-79
2022/10/25 05:49:21;;;;;;;42.25;25.17;;;;;;;8.36;100.00;99336.28;1688861;84;22381;-75
2022/10/25 05:51:50;;;;;;;41.42;25.97;;;;;;;8.49;100.00;99338.19;1664855;84;20967;-82
2022/10/25 05:54:22;;;;;;;45.17;25.17;;;;;;;8.62;100.00;99346.13;1681397;84;21146;-79
2022/10/25 05:56:50;;;;;;;39.10;26.33;;;;;;;8.74;100.00;99340.89;1715372;82;21431;-73
2022/10/25 05:59:20;;;;;;;36.45;26.27;;;;;;;8.88;100.00;99340.86;1689448;83;20892;-73
2022/10/25 06:01:47;;;;;;;46.45;30.30;;;;;;;9.02;100.00;99347.66;1690847;82;20966;-72
2022/10/25 06:04:19;;;;;;;35.63;26.75;;;;;;;9.15;100.00;99343.49;1715988;83;20955;-79
2022/10/25 06:06:56;;;;;;;41.23;30.75;;;;;;;9.27;100.00;99343.72;1708817;83;20934;-77
2022/10/25 06:09:24;;;;;;;52.75;37.08;;;;;;;9.41;100.00;99340.09;1703429;82;20924;-79
2022/10/25 06:11:55;;;;;;;69.65;46.42;;;;;;;9.53;100.00;99340.33;1701760;83;21060;-70
2022/10/25 06:14:22;;;;;;;78.60;53.08;;;;;;;9.64;100.00;99335.39;1687334;83;20942;-70
2022/10/25 06:16:49;;;;;;;73.00;46.53;;;;;;;9.76;100.00;99341.91;1682252;84;20906;-69
2022/10/25 06:19:15;;;;;;;81.47;48.70;;;;;;;9.88;100.00;99340.73;1706078;83;21132;-69
2022/10/25 06:21:42;;;;;;;84.32;47.55;;;;;;;10.03;100.00;99341.44;1704151;81;21013;-69
2022/10/25 06:24:09;;;;;;;69.45;45.45;;;;;;;10.20;100.00;99341.53;1724429;82;20954;-68
2022/10/25 06:26:37;;;;;;;57.38;37.80;;;;;;;10.44;100.00;99339.72;1709605;81;20904;-70
2022/10/25 06:29:04;;;;;;;59.15;40.15;;;;;;;10.72;100.00;99336.13;1709264;82;21030;-70
2022/10/25 06:31:31;;;;;;;60.65;39.80;;;;;;;10.92;100.00;99339.63;1698937;83;21252;-82
2022/10/25 06:34:00;;;;;;;57.38;35.90;;;;;;;11.13;100.00;99334.26;1691658;83;21035;-82
2022/10/25 06:36:27;;;;;;;42.38;24.60;;;;;;;11.42;100.00;99333.58;1703803;83;20979;-81
2022/10/25 06:38:53;;;;;;;40.88;23.07;;;;;;;11.69;100.00;99330.98;1703622;83;20978;-77
2022/10/25 06:41:23;;;;;;;35.90;24.15;;;;;;;11.82;100.00;99329.44;1721145;81;21007;-73
2022/10/25 06:43:51;;;;;;;37.55;26.02;;;;;;;11.89;100.00;99331.11;1696881;83;21122;-73
2022/10/25 06:46:27;;;;;;;37.58;27.27;;;;;;;11.97;100.00;99323.16;1721530;83;21033;-75
2022/10/25 06:48:55;;;;;;;44.00;27.60;;;;;;;12.00;100.00;99319.17;1688717;84;21011;-70
2022/10/25 06:51:23;;;;;;;38.83;26.85;;;;;;;12.03;100.00;99320.45;1693958;83;21060;-71
2022/10/25 06:53:58;;;;;;;39.40;27.10;;;;;;;12.01;100.00;99318.03;1688319;83;21030;-70
2022/10/25 06:56:26;;;;;;;38.10;23.67;;;;;;;11.97;100.00;99319.03;1707269;83;21257;-71
2022/10/25 06:58:53;;;;;;;28.12;19.85;;;;;;;11.92;100.00;99315.89;1689477;83;21603;-71
2022/10/25 07:10:14;;;;;;;29.48;17.77;;;;;;;11.75;100.00;99308.48;1801979;78;26273;-74
2022/10/25 07:12:42;;;;;;;38.13;23.47;;;;;;;11.83;100.00;99303.55;1746380;80;21045;-74
2022/10/25 07:15:11;;;;;;;33.00;20.43;;;;;;;12.09;100.00;99306.19;1756457;80;20959;-72
2022/10/25 07:17:37;;;;;;;39.63;24.45;;;;;;;12.58;100.00;99308.47;1772199;80;21600;-79
2022/10/25 07:20:06;;;;;;;42.48;24.18;;;;;;;13.17;100.00;99301.67;1757184;80;21017;-73
2022/10/25 07:22:32;;;;;;;33.78;21.45;;;;;;;13.84;100.00;99301.02;1742130;80;21600;-72
2022/10/25 07:24:59;;;;;;;36.35;22.25;;;;;;;14.44;100.00;99298.03;1711136;82;21048;-76
2022/10/25 07:27:25;;;;;;;29.70;18.50;;;;;;;14.83;100.00;99304.15;1699112;83;21174;-69
2022/10/25 07:29:52;;;;;;;30.23;19.00;;;;;;;15.14;100.00;99294.34;1662800;84;21002;-71
2022/10/25 07:32:19;;;;;;;29.85;17.48;;;;;;;15.34;100.00;99292.53;1673761;84;21099;-70
2022/10/25 07:34:45;;;;;;;21.95;15.35;;;;;;;15.54;100.00;99295.66;1672601;85;21113;-72
2022/10/25 07:37:11;;;;;;;26.97;15.40;;;;;;;15.80;100.00;99301.48;1673013;84;21028;-76
2022/10/25 07:39:38;;;;;;;28.73;17.40;;;;;;;15.99;97.55;99295.83;1672134;84;21591;-75
2022/10/25 07:42:05;;;;;;;23.45;16.02;;;;;;;16.09;94.77;99292.52;1669189;85;21026;-77
2022/10/25 07:44:31;;;;;;;26.02;15.53;;;;;;;16.10;93.23;99289.39;1664235;85;21084;-74
2022/10/25 07:46:58;;;;;;;23.15;14.58;;;;;;;16.13;92.71;99287.87;1661787;85;21045;-75
2022/10/25 07:49:25;;;;;;;22.87;13.28;;;;;;;16.09;92.42;99285.59;1687435;83;21018;-71
2022/10/25 07:51:51;;;;;;;21.48;14.43;;;;;;;15.99;92.12;99291.09;1671946;83;21131;-70
2022/10/25 07:54:18;;;;;;;20.05;13.35;;;;;;;15.87;90.49;99287.61;1691227;84;21111;-70
2022/10/25 07:56:44;;;;;;;18.02;13.03;;;;;;;15.74;90.21;99295.99;1688592;84;21490;-72
2022/10/25 07:59:11;;;;;;;18.50;12.78;;;;;;;15.58;90.33;99291.05;1688825;83;21082;-74
2022/10/25 08:01:37;;;;;;;17.42;11.25;;;;;;;15.49;91.90;99285.65;1684612;83;21079;-74
2022/10/25 08:04:04;;;;;;;21.57;11.40;;;;;;;15.42;89.96;99274.97;1701921;82;21259;-75
2022/10/25 08:06:31;;;;;;;15.90;11.53;;;;;;;15.31;90.18;99280.80;1710283;82;21007;-75
2022/10/25 08:08:58;;;;;;;20.32;12.60;;;;;;;15.16;90.19;99280.97;1681584;82;21054;-75
2022/10/25 08:11:25;;;;;;;25.17;14.63;;;;;;;15.04;92.48;99273.53;1671992;82;21058;-74
2022/10/25 08:13:52;;;;;;;24.47;15.98;;;;;;;14.99;93.34;99280.72;1680977;84;20995;-74
2022/10/25 08:16:20;;;;;;;18.62;12.95;;;;;;;14.99;93.79;99284.87;1677270;83;21046;-71
2022/10/25 08:18:48;;;;;;;19.98;13.22;;;;;;;14.96;93.78;99280.05;1666234;83;20978;-74
2022/10/25 08:21:15;;;;;;;24.30;13.20;;;;;;;14.92;94.05;99274.19;1679069;83;21071;-74
2022/10/25 08:23:43;;;;;;;22.27;13.55;;;;;;;14.88;94.16;99268.55;1695113;83;20979;-74
2022/10/25 08:26:10;;;;;;;22.95;14.20;;;;;;;14.79;93.92;99262.37;1655517;85;22355;-74
2022/10/25 08:28:37;;;;;;;22.62;12.98;;;;;;;14.73;94.95;99261.81;1651548;84;21206;-75
2022/10/25 08:31:04;;;;;;;24.82;14.40;;;;;;;14.73;95.12;99259.63;1638631;86;21100;-75
2022/10/25 08:33:31;;;;;;;27.70;14.13;;;;;;;14.72;95.71;99258.81;1644028;86;21008;-76
2022/10/25 08:36:01;;;;;;;20.20;13.70;;;;;;;14.73;95.66;99259.63;1670737;85;21589;-75
2022/10/25 08:38:28;;;;;;;20.30;11.57;;;;;;;14.72;95.85;99262.96;1667544;85;21547;-75
2022/10/25 08:41:15;;;;;;;18.15;10.30;;;;;;;14.68;95.61;99260.67;1675096;85;21238;-76
2022/10/25 08:44:03;;;;;;;15.68;10.75;;;;;;;14.64;95.56;99264.48;1669965;84;21000;-75
2022/10/25 08:47:09;;;;;;;15.85;11.05;;;;;;;14.60;95.20;99267.14;1669520;84;21041;-72
2022/10/25 08:50:04;;;;;;;17.85;10.98;;;;;;;14.57;95.77;99265.07;1611681;88;21573;-76
2022/10/25 08:52:41;;;;;;;18.87;11.00;;;;;;;14.56;96.08;99266.22;1705941;81;21054;-73
2022/10/25 08:55:30;;;;;;;17.70;10.88;;;;;;;14.56;96.53;99260.70;1686945;83;21983;-72
2022/10/25 08:57:57;;;;;;;19.00;10.75;;;;;;;14.59;96.57;99264.72;1706542;83;21011;-74
2022/10/25 09:00:28;;;;;;;20.62;11.85;;;;;;;14.63;96.49;99263.67;1725683;82;21028;-72
2022/10/25 09:02:59;;;;;;;15.53;10.93;;;;;;;14.67;96.27;99257.68;1725111;82;21493;-74
2022/10/25 09:06:10;;;;;;;19.52;11.78;;;;;;;14.74;96.93;99266.75;1716097;82;22068;-71
2022/10/25 09:08:56;;;;;;;19.52;11.40;;;;;;;14.85;96.79;99263.15;1720252;82;21181;-69
2022/10/25 09:12:05;;;;;;;19.05;11.93;;;;;;;14.98;96.25;99261.73;1714845;82;21052;-74
2022/10/25 09:14:41;;;;;;;15.95;11.03;;;;;;;15.10;96.65;99262.45;1708093;82;21161;-72
2022/10/25 09:17:22;;;;;;;25.70;12.55;;;;;;;15.16;93.65;99257.47;1710468;82;21029;-75
2022/10/25 09:20:07;;;;;;;17.23;11.00;;;;;;;15.09;93.31;99256.70;1718697;82;21090;-74
2022/10/25 09:22:52;;;;;;;21.00;13.50;;;;;;;15.02;93.22;99255.72;1716632;82;22007;-73
2022/10/25 09:25:39;;;;;;;26.60;14.10;;;;;;;14.97;93.38;99250.44;1733616;82;21015;-74
2022/10/25 09:28:26;;;;;;;23.47;12.43;;;;;;;14.95;93.31;99246.65;1700010;82;21023;-74
2022/10/25 09:30:53;;;;;;;18.95;11.78;;;;;;;14.93;94.14;99248.95;1743190;81;21019;-74
2022/10/25 09:33:21;;;;;;;15.05;11.05;;;;;;;14.90;94.24;99243.33;1733014;82;21070;-73
2022/10/25 09:35:52;;;;;;;16.55;11.25;;;;;;;14.86;94.45;99247.37;1719713;82;21174;-72
2022/10/25 09:38:39;;;;;;;19.37;12.28;;;;;;;14.84;94.41;99251.88;1738681;81;20986;-75
2022/10/25 09:41:19;;;;;;;23.25;12.28;;;;;;;14.82;95.09;99247.85;1728933;81;21548;-75
2022/10/25 09:44:00;;;;;;;20.00;12.63;;;;;;;14.80;95.51;99248.78;1737718;82;20990;-73
2022/10/25 09:46:49;;;;;;;16.77;11.57;;;;;;;14.79;95.72;99244.41;1731183;81;21067;-73
2022/10/25 09:49:31;;;;;;;24.40;12.93;;;;;;;14.78;95.70;99246.36;1722645;82;20984;-75
2022/10/25 09:52:30;;;;;;;18.87;10.88;;;;;;;14.76;95.29;99250.05;1712706;82;20999;-72
2022/10/25 09:55:33;;;;;;;18.17;11.63;;;;;;;14.73;95.08;99249.38;1708607;81;21101;-73
2022/10/25 09:58:00;;;;;;;22.22;12.30;;;;;;;14.68;94.63;99247.44;1693568;83;21087;-76
2022/10/25 10:00:27;;;;;;;13.80;9.48;;;;;;;14.63;94.87;99245.72;1711243;82;21031;-72
2022/10/25 10:02:54;;;;;;;21.17;13.10;;;;;;;14.60;94.38;99242.85;1723844;81;21109;-72
2022/10/25 10:05:21;;;;;;;23.77;14.05;;;;;;;14.56;94.59;99248.84;1724930;81;21007;-73
2022/10/25 10:07:50;;;;;;;24.57;12.00;;;;;;;14.51;95.13;99245.17;1725086;81;21121;-73
2022/10/25 10:10:24;;;;;;;17.55;11.22;;;;;;;14.48;95.08;99250.59;1726154;81;21046;-74
2022/10/25 10:13:06;;;;;;;15.85;10.80;;;;;;;14.43;94.94;99250.86;1723023;81;21247;-73
2022/10/25 10:15:40;;;;;;;14.98;11.03;;;;;;;14.39;95.23;99249.34;1725306;81;21267;-73
2022/10/25 10:18:31;;;;;;;18.17;11.25;;;;;;;14.34;95.26;99253.72;1732529;82;20963;-75
2022/10/25 10:21:21;;;;;;;15.90;11.30;;;;;;;14.28;95.52;99256.48;1709876;82;21474;-74
2022/10/25 10:23:58;;;;;;;17.70;11.08;;;;;;;14.23;96.03;99258.68;1709672;81;20927;-73
2022/10/25 10:26:35;;;;;;;14.98;10.75;;;;;;;14.17;96.87;99256.73;1673702;83;21042;-74
2022/10/25 10:29:15;;;;;;;16.02;10.93;;;;;;;14.11;97.77;99260.88;1709513;83;21178;-80
2022/10/25 10:31:44;;;;;;;17.70;13.00;;;;;;;14.06;98.87;99266.05;1719544;82;21073;-76
2022/10/25 10:34:25;;;;;;;15.83;12.28;;;;;;;14.00;99.97;99264.66;1733117;81;21023;-78
2022/10/25 10:37:15;;;;;;;20.80;12.93;;;;;;;13.94;100.00;99266.05;1742843;81;20963;-77
2022/10/25 10:39:57;;;;;;;20.72;13.78;;;;;;;13.87;100.00;99266.62;1710965;83;21107;-77
2022/10/25 10:42:34;;;;;;;24.10;13.80;;;;;;;13.78;100.00;99263.19;1717935;82;21263;-76
2022/10/25 10:45:11;;;;;;;25.20;14.73;;;;;;;13.72;100.00;99261.80;1693086;82;21053;-74
2022/10/25 10:47:47;;;;;;;21.55;15.20;;;;;;;13.66;100.00;99254.90;1707442;80;21059;-76
2022/10/25 10:50:27;;;;;;;25.97;17.15;;;;;;;13.62;100.00;99256.73;1704033;82;21528;-74
2022/10/25 10:53:02;;;;;;;23.42;15.95;;;;;;;13.58;100.00;99252.24;1708250;82;21113;-73
2022/10/25 10:55:38;;;;;;;27.82;16.57;;;;;;;13.52;100.00;99248.33;1695530;82;21219;-75
2022/10/25 10:58:16;;;;;;;26.20;16.10;;;;;;;13.49;100.00;99251.77;1670061;84;21588;-74
2022/10/25 11:01:06;;;;;;;21.48;14.95;;;;;;;13.48;100.00;99249.36;1716639;81;20901;-73
2022/10/25 11:03:44;;;;;;;27.58;14.38;;;;;;;13.45;100.00;99252.22;1704675;82;21128;-74
2022/10/25 11:06:32;;;;;;;26.33;14.73;;;;;;;13.42;100.00;99247.39;1713139;83;21122;-72
2022/10/25 11:09:16;;;;;;;22.13;14.60;;;;;;;13.38;100.00;99242.89;1694209;83;21142;-73
2022/10/25 11:11:44;;;;;;;22.55;14.18;;;;;;;13.33;100.00;99243.92;1718937;81;20975;-78
2022/10/25 11:14:14;;;;;;;20.68;14.68;;;;;;;13.31;100.00;99246.22;1739524;81;20947;-76
2022/10/25 11:17:07;;;;;;;19.77;13.28;;;;;;;13.27;100.00;99237.62;1723720;81;21108;-75
2022/10/25 11:20:08;;;;;;;28.92;14.90;;;;;;;13.26;100.00;99238.77;1712314;82;21103;-79
2022/10/25 11:23:20;;;;;;;27.40;16.85;;;;;;;13.22;100.00;99238.64;1718469;81;21534;-78
2022/10/25 11:26:11;;;;;;;28.35;17.37;;;;;;;13.19;100.00;99229.09;1703347;82;21122;-74
2022/10/25 11:29:08;;;;;;;21.82;14.60;;;;;;;13.12;100.00;99238.46;1685271;83;21058;-79
2022/10/25 11:31:58;;;;;;;29.52;16.32;;;;;;;13.08;100.00;99238.91;1717838;83;20965;-79
2022/10/25 11:34:52;;;;;;;28.77;17.30;;;;;;;13.06;100.00;99238.44;1690689;82;20994;-81
2022/10/25 11:37:22;;;;;;;25.60;15.95;;;;;;;13.03;100.00;99239.12;1703919;82;21178;-82
2022/10/25 11:40:03;;;;;;;31.02;15.45;;;;;;;13.00;100.00;99238.42;1713351;82;21104;-80
2022/10/25 11:42:56;;;;;;;23.55;14.35;;;;;;;12.98;100.00;99230.26;1699510;83;21089;-81
2022/10/25 11:45:35;;;;;;;22.75;13.88;;;;;;;12.97;100.00;99236.34;1696407;83;21534;-80
2022/10/25 11:48:30;;;;;;;24.20;13.88;;;;;;;12.95;100.00;99238.63;1719488;83;21049;-74
2022/10/25 11:51:11;;;;;;;21.33;16.10;;;;;;;12.93;100.00;99240.11;1712908;83;21273;-73
2022/10/25 11:54:17;;;;;;;22.25;15.58;;;;;;;12.90;100.00;99234.70;1714440;83;21025;-78
2022/10/25 11:57:17;;;;;;;23.22;14.35;;;;;;;12.87;100.00;99235.38;1711175;82;21074;-76
2022/10/25 11:59:59;;;;;;;22.07;14.73;;;;;;;12.83;100.00;99235.25;1710051;81;21060;-76
2022/10/25 12:02:46;;;;;;;;;;;;;;;12.79;100.00;99219.16;1707319;82;22125;-74
2022/10/25 12:05:46;;;;;;;23.07;15.83;;;;;;;12.75;100.00;99220.17;1710209;82;21137;-83